createdAt,value
2018-10-06T00:00:21.834Z,98923.41
2018-10-06T00:02:51.553Z,98957.21
2018-10-06T00:05:20.630Z,98944.95
2018-10-06T00:07:58.467Z,98892.66
2018-10-06T00:10:27.996Z,98966.34
2018-10-06T00:12:56.508Z,98966.93
2018-10-06T00:15:24.806Z,98961.56
2018-10-06T00:18:02.091Z,98947.08
2018-10-06T00:20:30.363Z,98940.91
2018-10-06T00:23:02.102Z,98932.60
2018-10-06T00:25:30.967Z,98954.34
2018-10-06T00:28:00.458Z,98947.48
2018-10-06T00:30:29.394Z,98951.50
2018-10-06T00:32:57.872Z,98945.68
2018-10-06T00:35:26.332Z,98941.55
2018-10-06T00:38:01.733Z,98938.60
2018-10-06T00:40:30.416Z,98937.54
2018-10-06T00:42:59.121Z,98958.29
2018-10-06T00:45:28.204Z,98911.34
2018-10-06T00:48:05.056Z,98930.36
2018-10-06T00:50:34.009Z,98920.23
2018-10-06T00:53:02.485Z,98913.57
2018-10-06T00:55:31.187Z,98910.24
2018-10-06T00:58:01.867Z,98914.00
2018-10-06T01:00:30.552Z,98915.23
2018-10-06T01:03:05.190Z,98914.61
2018-10-06T01:05:34.089Z,98914.26
2018-10-06T01:08:13.017Z,98827.57
2018-10-06T01:10:41.869Z,98896.92
2018-10-06T01:13:12.033Z,98915.91
2018-10-06T01:15:40.508Z,98906.66
2018-10-06T01:18:09.000Z,98907.95
2018-10-06T01:20:38.093Z,98897.02
2018-10-06T01:23:06.544Z,98909.03
2018-10-06T01:25:35.427Z,98910.04
2018-10-06T01:28:04.140Z,98902.28
2018-10-06T01:30:33.119Z,98900.44
2018-10-06T01:33:01.721Z,98906.88
2018-10-06T01:35:30.226Z,98901.41
2018-10-06T01:37:59.294Z,98889.36
2018-10-06T01:40:28.213Z,98860.97
2018-10-06T01:43:03.220Z,98893.63
2018-10-06T01:45:32.385Z,98858.77
2018-10-06T01:48:01.027Z,98894.47
2018-10-06T01:50:29.485Z,98884.41
2018-10-06T01:52:58.599Z,98890.69
2018-10-06T01:55:27.476Z,98893.80
2018-10-06T01:57:56.112Z,98870.29
2018-10-06T02:00:24.596Z,98889.17
2018-10-06T02:02:53.342Z,98860.91
2018-10-06T02:05:22.033Z,98889.50
2018-10-06T02:07:50.660Z,98888.46
2018-10-06T02:10:19.944Z,98886.55
2018-10-06T02:12:48.305Z,98880.47
2018-10-06T02:15:18.165Z,98870.77
2018-10-06T02:17:46.866Z,98871.48
2018-10-06T02:20:15.778Z,98873.45
2018-10-06T02:22:44.604Z,98873.55
2018-10-06T02:25:13.351Z,98865.47
2018-10-06T02:27:42.245Z,98821.14
2018-10-06T02:30:11.215Z,98866.28
2018-10-06T02:32:40.196Z,98858.32
2018-10-06T02:35:08.885Z,98817.48
2018-10-06T02:37:37.401Z,98867.18
2018-10-06T02:40:06.206Z,98860.72
2018-10-06T02:42:35.341Z,98856.93
2018-10-06T02:45:04.036Z,98852.31
2018-10-06T02:47:32.921Z,98844.70
2018-10-06T02:50:02.273Z,98834.07
2018-10-06T02:52:30.901Z,98838.05
2018-10-06T02:54:59.559Z,98819.87
2018-10-06T02:57:28.488Z,98816.77
2018-10-06T02:59:57.125Z,98814.97
2018-10-06T03:02:25.644Z,98877.58
2018-10-06T03:04:54.309Z,98820.01
2018-10-06T03:07:23.772Z,98810.44
2018-10-06T03:09:59.236Z,98789.72
2018-10-06T03:12:28.373Z,98813.38
2018-10-06T03:14:57.068Z,98809.50
2018-10-06T03:17:25.580Z,98806.13
2018-10-06T03:19:55.009Z,98807.36
2018-10-06T03:22:23.565Z,98801.92
2018-10-06T03:24:52.192Z,98801.08
2018-10-06T03:27:21.116Z,98801.17
2018-10-06T03:29:49.751Z,98800.53
2018-10-06T03:32:18.269Z,98800.79
2018-10-06T03:34:47.134Z,98775.61
2018-10-06T03:37:15.836Z,98790.71
2018-10-06T03:39:44.500Z,98789.71
2018-10-06T03:42:13.449Z,98790.80
2018-10-06T03:44:42.264Z,98789.19
2018-10-06T03:47:10.785Z,98791.58
2018-10-06T03:49:39.657Z,98793.36
2018-10-06T03:52:08.197Z,98770.95
2018-10-06T03:57:10.388Z,98790.33
2018-10-06T03:59:39.332Z,98787.62
2018-10-06T04:02:07.848Z,98779.70
2018-10-06T04:04:36.464Z,98786.00
2018-10-06T04:07:05.565Z,98790.66
2018-10-06T04:09:34.232Z,98792.20
2018-10-06T04:12:03.045Z,98787.75
2018-10-06T04:14:31.857Z,98782.25
2018-10-06T04:17:00.493Z,98787.55
2018-10-06T04:19:29.044Z,98777.62
2018-10-06T04:21:57.497Z,98711.66
2018-10-06T04:24:26.401Z,98772.09
2018-10-06T04:26:55.038Z,98755.73
2018-10-06T04:29:23.867Z,98770.52
2018-10-06T04:31:52.936Z,98776.89
2018-10-06T04:34:21.973Z,98774.25
2018-10-06T04:36:52.579Z,98774.16
2018-10-06T04:39:21.169Z,98772.95
2018-10-06T04:41:50.074Z,98774.73
2018-10-06T04:44:24.913Z,98777.66
2018-10-06T04:46:54.006Z,98772.36
2018-10-06T04:49:31.875Z,98767.52
2018-10-06T04:52:00.363Z,98763.50
2018-10-06T04:54:40.885Z,98770.97
2018-10-06T04:57:09.539Z,98757.83
2018-10-06T04:59:38.624Z,98760.23
2018-10-06T05:02:07.468Z,98759.09
2018-10-06T05:04:35.977Z,98759.59
2018-10-06T05:07:04.857Z,98760.48
2018-10-06T05:09:33.220Z,98765.92
2018-10-06T05:12:01.801Z,98765.73
2018-10-06T05:14:30.900Z,98756.14
2018-10-06T05:16:59.669Z,98735.85
2018-10-06T05:19:30.565Z,98758.83
2018-10-06T05:21:59.273Z,98759.28
2018-10-06T05:24:27.872Z,98754.27
2018-10-06T05:26:56.564Z,98751.78
2018-10-06T05:29:25.491Z,98746.45
2018-10-06T05:31:53.785Z,98729.91
2018-10-06T05:34:23.288Z,98751.20
2018-10-06T05:36:52.150Z,98747.29
2018-10-06T05:39:20.866Z,98752.97
2018-10-06T05:41:49.553Z,98754.49
2018-10-06T05:44:20.528Z,98712.10
2018-10-06T05:46:49.374Z,98744.83
2018-10-06T05:49:17.833Z,98741.09
2018-10-06T05:51:47.153Z,98749.45
2018-10-06T05:54:18.923Z,98760.28
2018-10-06T05:56:47.360Z,98757.40
2018-10-06T05:59:16.205Z,98741.66
2018-10-06T06:01:45.193Z,98761.00
2018-10-06T06:04:14.552Z,98754.34
2018-10-06T06:06:42.979Z,98735.20
2018-10-06T06:12:01.960Z,98779.37
2018-10-06T06:14:31.004Z,98780.19
2018-10-06T06:16:59.504Z,98745.49
2018-10-06T06:19:28.365Z,98774.92
2018-10-06T06:21:57.314Z,98763.94
2018-10-06T06:24:25.964Z,98784.42
2018-10-06T06:26:54.428Z,98783.48
2018-10-06T06:29:23.337Z,98737.32
2018-10-06T06:31:52.235Z,98782.15
2018-10-06T06:34:20.833Z,98789.23
2018-10-06T06:36:50.624Z,98784.19
2018-10-06T06:39:34.052Z,98786.73
2018-10-06T06:42:02.993Z,98769.13
2018-10-06T06:44:31.408Z,98785.66
2018-10-06T06:46:59.893Z,98770.38
2018-10-06T06:49:28.516Z,98768.64
2018-10-06T06:51:57.048Z,98776.97
2018-10-06T06:54:26.021Z,98783.28
2018-10-06T06:56:54.929Z,98774.29
2018-10-06T06:59:23.296Z,98773.87
2018-10-06T07:01:52.195Z,98783.41
2018-10-06T07:04:22.137Z,98775.78
2018-10-06T07:06:51.373Z,98774.34
2018-10-06T07:09:19.960Z,98775.44
2018-10-06T07:11:48.756Z,98778.58
2018-10-06T07:14:17.653Z,98798.69
2018-10-06T07:16:46.092Z,98769.49
2018-10-06T07:19:14.640Z,98768.14
2018-10-06T07:21:43.237Z,98762.94
2018-10-06T07:24:11.933Z,98750.78
2018-10-06T07:26:41.438Z,98753.88
2018-10-06T07:29:12.849Z,98755.30
2018-10-06T07:31:41.437Z,98752.13
2018-10-06T07:34:11.264Z,98741.58
2018-10-06T07:36:39.853Z,98754.16
2018-10-06T07:39:08.539Z,98722.48
2018-10-06T07:41:37.408Z,98749.38
2018-10-06T07:44:05.900Z,98732.55
2018-10-06T07:46:34.598Z,98721.53
2018-10-06T07:49:03.690Z,98753.83
2018-10-06T07:51:32.016Z,98745.07
2018-10-06T07:54:00.505Z,98735.92
2018-10-06T07:56:29.352Z,98742.11
2018-10-06T07:58:57.978Z,98737.04
2018-10-06T08:01:26.500Z,98704.16
2018-10-06T08:03:55.152Z,98735.33
2018-10-06T08:06:23.879Z,98737.72
2018-10-06T08:08:52.493Z,98714.20
2018-10-06T08:11:21.166Z,98735.86
2018-10-06T08:13:49.729Z,98737.05
2018-10-06T08:16:18.040Z,98737.28
2018-10-06T08:18:47.929Z,98729.24
2018-10-06T08:21:16.805Z,98710.52
2018-10-06T08:23:45.118Z,98730.09
2018-10-06T08:26:13.680Z,98729.88
2018-10-06T08:28:47.120Z,98728.11
2018-10-06T08:31:15.712Z,98725.64
2018-10-06T08:33:44.537Z,98713.39
2018-10-06T08:36:13.020Z,98707.38
2018-10-06T08:38:41.761Z,98701.11
2018-10-06T08:41:10.109Z,98701.92
2018-10-06T08:43:38.690Z,98689.97
2018-10-06T08:46:07.328Z,98685.58
2018-10-06T08:48:35.666Z,98690.09
2018-10-06T08:51:04.057Z,98684.98
2018-10-06T08:53:32.813Z,98690.05
2018-10-06T08:56:01.364Z,98687.08
2018-10-06T08:58:29.887Z,98689.56
2018-10-06T09:00:58.808Z,98695.47
2018-10-06T09:03:27.333Z,98693.86
2018-10-06T09:05:55.613Z,98668.95
2018-10-06T09:08:24.834Z,98705.27
2018-10-06T09:10:53.119Z,98693.05
2018-10-06T09:13:21.661Z,98693.95
2018-10-06T09:15:50.420Z,98691.59
2018-10-06T09:18:18.837Z,98686.05
2018-10-06T09:20:47.476Z,98665.47
2018-10-06T09:23:16.599Z,98651.86
2018-10-06T09:25:44.857Z,98677.45
2018-10-06T09:28:14.998Z,98655.38
2018-10-06T09:30:43.627Z,98671.38
2018-10-06T09:33:12.340Z,98672.22
2018-10-06T09:35:40.729Z,98648.11
2018-10-06T09:38:09.372Z,98643.53
2018-10-06T09:40:37.643Z,98669.27
2018-10-06T09:43:06.456Z,98670.03
2018-10-06T09:45:35.042Z,98662.18
2018-10-06T09:48:03.850Z,98660.29
2018-10-06T09:50:32.183Z,98635.67
2018-10-06T09:53:00.792Z,98627.23
2018-10-06T09:55:29.089Z,98634.05
2018-10-06T09:57:57.597Z,98638.06
2018-10-06T10:00:31.952Z,98633.05
2018-10-06T10:03:05.663Z,98624.06
2018-10-06T10:05:39.597Z,98640.22
2018-10-06T10:08:07.891Z,98631.98
2018-10-06T10:10:36.324Z,98611.86
2018-10-06T10:13:05.049Z,98637.47
2018-10-06T10:15:33.461Z,98633.85
2018-10-06T10:18:01.904Z,98621.56
2018-10-06T10:20:30.429Z,98627.91
2018-10-06T10:22:59.368Z,98618.09
2018-10-06T10:25:27.673Z,98614.85
2018-10-06T10:27:56.252Z,98613.78
2018-10-06T10:30:25.004Z,98617.55
2018-10-06T10:32:53.812Z,98615.15
2018-10-06T10:35:22.385Z,98607.62
2018-10-06T10:37:50.952Z,98576.16
2018-10-06T10:40:20.147Z,98596.22
2018-10-06T10:42:49.667Z,98606.64
2018-10-06T10:45:18.010Z,98591.86
2018-10-06T10:47:46.657Z,98584.27
2018-10-06T10:50:15.244Z,98591.06
2018-10-06T10:52:43.800Z,98583.66
2018-10-06T10:55:12.104Z,98584.16
2018-10-06T10:57:40.720Z,98572.53
2018-10-06T11:00:09.455Z,98569.41
2018-10-06T11:02:37.972Z,98571.08
2018-10-06T11:05:06.602Z,98567.88
2018-10-06T11:07:35.075Z,98564.48
2018-10-06T11:10:03.933Z,98560.50
2018-10-06T11:12:32.603Z,98561.73
2018-10-06T11:15:01.386Z,98547.61
2018-10-06T11:17:29.733Z,98538.86
2018-10-06T11:19:58.577Z,98536.44
2018-10-06T11:22:26.952Z,98513.34
2018-10-06T11:24:55.793Z,98527.81
2018-10-06T11:27:24.813Z,98519.64
2018-10-06T11:29:55.894Z,98496.75
2018-10-06T11:32:24.220Z,98510.38
2018-10-06T11:34:53.072Z,98507.15
2018-10-06T11:37:21.627Z,98510.05
2018-10-06T11:39:49.905Z,98498.88
2018-10-06T11:42:18.460Z,98499.08
2018-10-06T11:44:46.735Z,98503.66
2018-10-06T11:47:15.006Z,98501.27
2018-10-06T11:49:43.874Z,98494.98
2018-10-06T11:52:12.621Z,98495.20
2018-10-06T11:54:40.947Z,98484.44
2018-10-06T11:57:09.520Z,98483.70
2018-10-06T11:59:38.152Z,98484.05
2018-10-06T12:02:06.642Z,98458.09
2018-10-06T12:04:35.681Z,98476.90
2018-10-06T12:07:04.084Z,98478.55
2018-10-06T12:09:32.396Z,98475.24
2018-10-06T12:12:01.829Z,98468.27
2018-10-06T12:14:30.080Z,98447.94
2018-10-06T12:16:58.569Z,98461.25
2018-10-06T12:19:27.145Z,98458.73
2018-10-06T12:21:55.684Z,98459.42
2018-10-06T12:24:24.325Z,98412.59
2018-10-06T12:26:52.881Z,98461.58
2018-10-06T12:29:21.165Z,98452.38
2018-10-06T12:31:49.952Z,98458.23
2018-10-06T12:34:18.497Z,98445.91
2018-10-06T12:36:46.807Z,98451.33
2018-10-06T12:39:15.188Z,98453.36
2018-10-06T12:41:43.989Z,98449.75
2018-10-06T12:44:12.260Z,98441.39
2018-10-06T12:46:40.547Z,98443.06
2018-10-06T12:49:09.092Z,98430.13
2018-10-06T12:51:37.385Z,98427.98
2018-10-06T12:54:05.720Z,98445.63
2018-10-06T12:56:34.327Z,98432.33
2018-10-06T12:59:02.624Z,98438.59
2018-10-06T13:01:30.961Z,98425.30
2018-10-06T13:03:59.910Z,98397.09
2018-10-06T13:06:28.982Z,98433.69
2018-10-06T13:08:59.372Z,98425.36
2018-10-06T13:11:27.941Z,98429.52
2018-10-06T13:13:56.237Z,98402.11
2018-10-06T13:16:24.509Z,98414.92
2018-10-06T13:18:53.067Z,98434.59
2018-10-06T13:21:21.677Z,98432.41
2018-10-06T13:23:49.933Z,98423.17
2018-10-06T13:26:18.488Z,98436.27
2018-10-06T13:28:46.776Z,98441.37
2018-10-06T13:31:15.049Z,98432.33
2018-10-06T13:33:44.102Z,98432.18
2018-10-06T13:36:12.409Z,98440.52
2018-10-06T13:38:40.856Z,98384.97
2018-10-06T13:41:09.540Z,98419.64
2018-10-06T13:43:37.897Z,98423.87
2018-10-06T13:46:06.481Z,98401.01
2018-10-06T13:48:35.061Z,98433.34
2018-10-06T13:51:03.380Z,98430.18
2018-10-06T13:53:31.657Z,98429.38
2018-10-06T13:56:00.232Z,98429.21
2018-10-06T13:58:32.746Z,98421.66
2018-10-06T14:01:01.076Z,98428.07
2018-10-06T14:03:30.418Z,98423.56
2018-10-06T14:05:59.487Z,98420.61
2018-10-06T14:08:28.849Z,98423.06
2018-10-06T14:10:57.441Z,98411.11
2018-10-06T14:13:25.810Z,98411.98
2018-10-06T14:15:54.098Z,98407.11
2018-10-06T14:18:23.107Z,98401.25
2018-10-06T14:20:51.583Z,98343.84
2018-10-06T14:23:20.488Z,98385.61
2018-10-06T14:25:49.779Z,98410.63
2018-10-06T14:28:19.505Z,98396.74
2018-10-06T14:30:47.825Z,98388.22
2018-10-06T14:33:16.717Z,98386.80
2018-10-06T14:35:45.102Z,98386.55
2018-10-06T14:38:13.397Z,98395.63
2018-10-06T14:40:42.948Z,98390.64
2018-10-06T14:43:11.513Z,98390.64
2018-10-06T14:45:39.860Z,98386.45
2018-10-06T14:48:08.728Z,98397.19
2018-10-06T14:50:37.084Z,98358.42
2018-10-06T14:53:05.439Z,98378.02
2018-10-06T14:55:36.222Z,98389.94
2018-10-06T14:58:05.213Z,98374.86
2018-10-06T15:00:36.774Z,98378.50
2018-10-06T15:03:05.396Z,98368.19
2018-10-06T15:05:34.124Z,98370.27
2018-10-06T15:08:03.107Z,98366.67
2018-10-06T15:10:31.849Z,98365.59
2018-10-06T15:13:00.667Z,98360.37
2018-10-06T15:15:31.371Z,98342.22
2018-10-06T15:18:01.032Z,98364.38
2018-10-06T15:20:29.314Z,98351.81
2018-10-06T15:23:04.806Z,98349.52
2018-10-06T15:25:33.391Z,98345.89
2018-10-06T15:28:01.720Z,98329.09
2018-10-06T15:30:30.051Z,98339.55
2018-10-06T15:32:59.585Z,98336.29
2018-10-06T15:35:27.944Z,98340.75
2018-10-06T15:37:56.397Z,98342.38
2018-10-06T15:40:25.041Z,98340.20
2018-10-06T15:42:53.488Z,98340.99
2018-10-06T15:45:21.925Z,98338.36
2018-10-06T15:47:50.959Z,98340.54
2018-10-06T15:50:19.379Z,98330.42
2018-10-06T15:52:47.800Z,98346.05
2018-10-06T15:55:16.380Z,98343.91
2018-10-06T15:57:45.249Z,98347.70
2018-10-06T16:00:13.686Z,98332.12
2018-10-06T16:02:42.630Z,98349.72
2018-10-06T16:05:11.003Z,98333.73
2018-10-06T16:07:40.420Z,98345.39
2018-10-06T16:10:09.147Z,98349.60
2018-10-06T16:12:37.643Z,98343.82
2018-10-06T16:15:06.747Z,98346.48
2018-10-06T16:17:35.421Z,98339.45
2018-10-06T16:20:03.857Z,98350.49
2018-10-06T16:22:32.177Z,98348.46
2018-10-06T16:25:00.744Z,98349.98
2018-10-06T16:27:29.126Z,98342.42
2018-10-06T16:29:57.377Z,98351.77
2018-10-06T16:32:25.961Z,98350.00
2018-10-06T16:34:54.312Z,98336.89
2018-10-06T16:37:22.925Z,98351.80
2018-10-06T16:39:51.499Z,98339.63
2018-10-06T16:42:19.770Z,98342.23
2018-10-06T16:44:48.354Z,98335.33
2018-10-06T16:47:16.947Z,98357.04
2018-10-06T16:49:45.416Z,98353.95
2018-10-06T16:52:13.846Z,98349.80
2018-10-06T16:54:42.579Z,98356.44
2018-10-06T16:57:10.873Z,98345.35
2018-10-06T16:59:39.335Z,98351.31
2018-10-06T17:02:07.996Z,98354.07
2018-10-06T17:04:36.229Z,98344.28
2018-10-06T17:07:04.539Z,98346.27
2018-10-06T17:09:33.281Z,98347.33
2018-10-06T17:12:01.792Z,98217.91
2018-10-06T17:14:30.757Z,98343.77
2018-10-06T17:16:59.348Z,98337.34
2018-10-06T17:19:27.608Z,98340.95
2018-10-06T17:21:55.963Z,98309.37
2018-10-06T17:24:24.844Z,98335.00
2018-10-06T17:26:53.424Z,98344.16
2018-10-06T17:29:21.735Z,98344.06
2018-10-06T17:31:50.345Z,98315.68
2018-10-06T17:34:20.745Z,98333.41
2018-10-06T17:36:49.205Z,98277.57
2018-10-06T17:39:17.865Z,98324.92
2018-10-06T17:41:46.244Z,98318.86
2018-10-06T17:44:14.855Z,98336.66
2018-10-06T17:46:43.468Z,98319.48
2018-10-06T17:49:12.328Z,98335.16
2018-10-06T17:51:40.931Z,98333.92
2018-10-06T17:54:09.952Z,98334.34
2018-10-06T17:56:38.507Z,98329.17
2018-10-06T17:59:07.356Z,98330.11
2018-10-06T18:01:36.113Z,98325.27
2018-10-06T18:04:04.483Z,98338.38
2018-10-06T18:06:33.037Z,98334.30
2018-10-06T18:09:01.650Z,98336.24
2018-10-06T18:11:29.981Z,98317.97
2018-10-06T18:13:58.292Z,98338.66
2018-10-06T18:16:27.357Z,98331.87
2018-10-06T18:18:56.061Z,98336.19
2018-10-06T18:21:24.850Z,98316.75
2018-10-06T18:23:54.046Z,98306.15
2018-10-06T18:26:22.377Z,98343.48
2018-10-06T18:28:50.678Z,98338.22
2018-10-06T18:31:19.284Z,98336.81
2018-10-06T18:33:47.573Z,98335.88
2018-10-06T18:36:15.879Z,98335.88
2018-10-06T18:38:44.526Z,98332.33
2018-10-06T18:41:12.813Z,98339.49
2018-10-06T18:43:43.389Z,98341.17
2018-10-06T18:46:12.037Z,98345.20
2018-10-06T18:48:40.557Z,98343.12
2018-10-06T18:51:08.924Z,98345.27
2018-10-06T18:53:37.527Z,98343.09
2018-10-06T18:56:05.961Z,98336.69
2018-10-06T18:58:34.241Z,98324.47
2018-10-06T19:01:02.820Z,98359.75
2018-10-06T19:03:31.109Z,98334.55
2018-10-06T19:05:59.446Z,98344.33
2018-10-06T19:08:28.029Z,98337.42
2018-10-06T19:10:56.943Z,98346.94
2018-10-06T19:13:25.345Z,98329.69
2018-10-06T19:15:54.273Z,98345.44
2018-10-06T19:18:22.602Z,98346.94
2018-10-06T19:20:50.905Z,98349.50
2018-10-06T19:23:20.661Z,98285.78
2018-10-06T19:25:49.023Z,98347.97
2018-10-06T19:28:17.475Z,98343.20
2018-10-06T19:30:46.480Z,98352.72
2018-10-06T19:33:14.860Z,98346.97
2018-10-06T19:35:43.167Z,98354.48
2018-10-06T19:38:11.848Z,98356.07
2018-10-06T19:40:45.029Z,98350.14
2018-10-06T19:43:14.181Z,98351.38
2018-10-06T19:45:42.910Z,98352.66
2018-10-06T19:48:11.618Z,98336.82
2018-10-06T19:50:39.925Z,98357.56
2018-10-06T19:53:08.744Z,98344.42
2018-10-06T19:55:37.424Z,98342.34
2018-10-06T19:58:05.916Z,98332.13
2018-10-06T20:00:34.509Z,98356.33
2018-10-06T20:03:02.844Z,98348.27
2018-10-06T20:05:31.205Z,98361.00
2018-10-06T20:07:59.777Z,98368.22
2018-10-06T20:10:28.249Z,98364.25
2018-10-06T20:12:56.580Z,98371.91
2018-10-06T20:15:25.181Z,98355.47
2018-10-06T20:17:54.672Z,98372.12
2018-10-06T20:20:23.169Z,98372.34
2018-10-06T20:22:52.045Z,98371.09
2018-10-06T20:25:20.759Z,98374.46
2018-10-06T20:27:49.520Z,98374.84
2018-10-06T20:30:18.136Z,98378.61
2018-10-06T20:32:47.126Z,98379.38
2018-10-06T20:35:15.481Z,98394.11
2018-10-06T20:37:44.065Z,98378.34
2018-10-06T20:40:12.921Z,98383.48
2018-10-06T20:42:41.388Z,98378.34
2018-10-06T20:45:10.004Z,98366.95
2018-10-06T20:47:38.468Z,98367.41
2018-10-06T20:50:10.844Z,98273.84
2018-10-06T20:52:39.514Z,98388.22
2018-10-06T20:55:08.172Z,98390.19
2018-10-06T20:57:36.690Z,98370.95
2018-10-06T21:00:06.361Z,98387.02
2018-10-06T21:02:35.917Z,98379.41
2018-10-06T21:05:05.809Z,98386.80
2018-10-06T21:07:34.720Z,98342.91
2018-10-06T21:10:03.393Z,98388.26
2018-10-06T21:12:33.097Z,98370.31
2018-10-06T21:15:03.145Z,98384.36
2018-10-06T21:17:32.558Z,98368.05
2018-10-06T21:20:01.626Z,98383.03
2018-10-06T21:22:31.636Z,98366.20
2018-10-06T21:25:00.872Z,98373.20
2018-10-06T21:27:29.228Z,98391.38
2018-10-06T21:29:58.364Z,98390.23
2018-10-06T21:32:26.815Z,98395.42
2018-10-06T21:34:55.544Z,98391.33
2018-10-06T21:37:24.457Z,98361.52
2018-10-06T21:39:52.903Z,98388.91
2018-10-06T21:42:21.230Z,98388.61
2018-10-06T21:44:50.249Z,98384.72
2018-10-06T21:47:19.112Z,98361.57
2018-10-06T21:49:47.365Z,98376.50
2018-10-06T21:52:16.669Z,98339.61
2018-10-06T21:54:45.379Z,98337.39
2018-10-06T21:57:15.134Z,98364.88
2018-10-06T21:59:44.693Z,98350.89
2018-10-06T22:02:13.908Z,98401.33
2018-10-06T22:04:42.308Z,98399.38
2018-10-06T22:07:23.621Z,98366.48
2018-10-06T22:09:52.424Z,98365.78
2018-10-06T22:12:21.408Z,98391.52
2018-10-06T22:14:49.925Z,98368.39
2018-10-06T22:17:18.249Z,98377.30
2018-10-06T22:19:47.374Z,98405.06
2018-10-06T22:22:15.688Z,98380.05
2018-10-06T22:24:44.157Z,98393.84
2018-10-06T22:27:13.262Z,98397.94
2018-10-06T22:29:41.573Z,98398.17
2018-10-06T22:32:09.988Z,98399.57
2018-10-06T22:34:38.916Z,98385.13
2018-10-06T22:37:07.260Z,98395.67
2018-10-06T22:39:36.296Z,98403.92
2018-10-06T22:42:05.532Z,98318.91
2018-10-06T22:44:34.217Z,98399.48
2018-10-06T22:47:03.184Z,98397.08
2018-10-06T22:49:31.769Z,98401.30
2018-10-06T22:52:00.309Z,98394.17
2018-10-06T22:54:28.772Z,98390.02
2018-10-06T22:56:57.774Z,98394.72
2018-10-06T22:59:26.376Z,98384.75
2018-10-06T23:01:55.215Z,98383.89
2018-10-06T23:04:23.988Z,98382.38
2018-10-06T23:06:52.421Z,98380.70
2018-10-06T23:09:21.085Z,98385.61
2018-10-06T23:11:50.166Z,98387.72
2018-10-06T23:14:18.665Z,98380.91
2018-10-06T23:16:47.153Z,98387.49
2018-10-06T23:19:16.225Z,98338.98
2018-10-06T23:21:44.750Z,98393.97
2018-10-06T23:24:13.658Z,98384.83
2018-10-06T23:26:42.716Z,98391.69
2018-10-06T23:29:11.372Z,98353.44
2018-10-06T23:31:39.899Z,98390.97
2018-10-06T23:34:08.965Z,98349.20
2018-10-06T23:36:39.692Z,98388.06
2018-10-06T23:39:08.258Z,98371.83
2018-10-06T23:41:37.097Z,98393.42
2018-10-06T23:44:05.980Z,98392.59
2018-10-06T23:46:34.609Z,98389.47
2018-10-06T23:49:04.031Z,98374.12
2018-10-06T23:51:32.665Z,98389.22
2018-10-06T23:54:03.303Z,98353.80
2018-10-06T23:56:32.398Z,98387.46
2018-10-06T23:59:00.985Z,98388.38
